Terminal Aerodrome Forecast
Issued by NWS

Home | Current Version | Previous Version | Text Only | Print | Product List | Glossary On
Versions: 1 2 3 4 5 6 7 8 9 10 11 12 13 14 15 16 17 18 19 20 21 22 23 24
768
FTUS41 KBTV 230535
TAFRUT
TAF
KRUT 230535Z 2306/2406 11012G25KT P6SM VCSH OVC035
     FM230800 12015G30KT P6SM OVC030
     FM231200 12015G35KT P6SM OVC030
     FM232300 10015G35KT P6SM VCSH OVC030
     FM240200 10014G32KT 3SM -SNPL BR OVC020=

USA.gov is the U.S. government's official web portal to all federal, state and local government web resources and services.